createdAt,value
2022-08-17T00:01:52.075Z,22.20
2022-08-17T00:04:23.481Z,22.20
2022-08-17T00:06:53.305Z,22.40
2022-08-17T00:09:22.841Z,22.40
2022-08-17T00:12:40.866Z,22.30
2022-08-17T00:14:39.224Z,22.40
2022-08-17T00:17:07.933Z,22.30
2022-08-17T00:19:36.127Z,22.20
2022-08-17T00:22:32.436Z,22.10
2022-08-17T00:24:56.107Z,21.90
2022-08-17T00:27:24.285Z,21.80
2022-08-17T00:29:52.418Z,22.10
2022-08-17T00:33:13.794Z,22.20
2022-08-17T00:35:11.133Z,22.10
2022-08-17T00:37:39.394Z,22.00
2022-08-17T00:40:11.796Z,21.90
2022-08-17T00:42:40.270Z,21.90
2022-08-17T00:45:11.601Z,22.10
2022-08-17T00:47:39.997Z,21.80
2022-08-17T00:50:11.010Z,21.60
2022-08-17T00:52:43.940Z,21.40
2022-08-17T00:55:13.544Z,21.30
2022-08-17T00:57:47.647Z,21.50
2022-08-17T01:00:19.586Z,21.60
2022-08-17T01:02:48.974Z,21.60
2022-08-17T01:05:20.756Z,21.60
2022-08-17T01:07:50.808Z,21.60
2022-08-17T01:11:00.423Z,21.60
2022-08-17T01:13:12.912Z,21.60
2022-08-17T01:15:46.200Z,21.60
2022-08-17T01:18:16.611Z,21.60
2022-08-17T01:20:49.080Z,21.60
2022-08-17T01:23:21.687Z,21.60
2022-08-17T01:25:52.291Z,21.70
2022-08-17T01:28:52.404Z,21.60
2022-08-17T01:31:10.761Z,21.50
2022-08-17T01:33:39.097Z,21.50
2022-08-17T01:36:08.462Z,21.50
2022-08-17T01:38:39.106Z,21.50
2022-08-17T01:41:12.491Z,21.50
2022-08-17T01:43:45.410Z,21.50
2022-08-17T01:46:17.161Z,21.40
2022-08-17T01:48:47.380Z,21.40
2022-08-17T01:51:16.577Z,21.40
2022-08-17T01:53:49.659Z,21.40
2022-08-17T01:56:20.753Z,21.40
2022-08-17T01:58:49.180Z,21.30
2022-08-17T02:01:21.639Z,21.50
2022-08-17T02:03:54.552Z,21.40
2022-08-17T02:06:30.509Z,21.30
2022-08-17T02:09:01.964Z,21.10
2022-08-17T02:11:34.323Z,21.20
2022-08-17T02:14:04.142Z,21.20
2022-08-17T02:16:37.323Z,21.20
2022-08-17T02:19:07.575Z,21.10
2022-08-17T02:21:36.206Z,21.20
2022-08-17T02:24:07.983Z,21.30
2022-08-17T02:26:37.359Z,21.30
2022-08-17T02:29:05.461Z,21.50
2022-08-17T02:31:35.549Z,21.70
2022-08-17T02:34:05.363Z,21.80
2022-08-17T02:36:35.101Z,21.60
2022-08-17T02:39:06.051Z,21.50
2022-08-17T02:41:34.705Z,21.60
2022-08-17T02:44:02.833Z,21.60
2022-08-17T02:46:32.271Z,21.60
2022-08-17T02:49:00.570Z,21.50
2022-08-17T02:51:29.015Z,20.90
2022-08-17T02:54:35.787Z,20.80
2022-08-17T02:56:46.528Z,20.80
2022-08-17T02:59:14.567Z,20.80
2022-08-17T03:01:42.810Z,20.90
2022-08-17T03:04:10.921Z,20.80
2022-08-17T03:06:39.013Z,20.80
2022-08-17T03:09:07.046Z,20.70
2022-08-17T03:11:35.399Z,20.60
2022-08-17T03:14:04.770Z,20.80
2022-08-17T03:16:32.936Z,20.80
2022-08-17T03:19:01.568Z,20.90
2022-08-17T03:21:29.650Z,21.00
2022-08-17T03:23:57.681Z,21.00
2022-08-17T03:26:25.788Z,21.00
2022-08-17T03:28:57.913Z,21.00
2022-08-17T03:31:27.519Z,21.10
2022-08-17T03:33:56.270Z,21.10
2022-08-17T03:36:24.683Z,21.10
2022-08-17T03:38:52.851Z,21.10
2022-08-17T03:41:22.952Z,21.10
2022-08-17T03:43:51.043Z,21.00
2022-08-17T03:46:36.723Z,20.90
2022-08-17T03:49:26.732Z,20.80
2022-08-17T03:52:13.610Z,20.90
2022-08-17T03:54:59.969Z,20.90
2022-08-17T03:57:29.122Z,20.90
2022-08-17T03:59:57.292Z,21.00
2022-08-17T04:02:27.998Z,21.00
2022-08-17T04:04:57.743Z,21.00
2022-08-17T04:07:27.735Z,21.00
2022-08-17T04:09:57.834Z,21.00
2022-08-17T04:12:26.420Z,21.00
2022-08-17T04:14:55.240Z,21.00
2022-08-17T04:17:26.505Z,21.00
2022-08-17T04:19:55.791Z,21.00
2022-08-17T04:22:31.794Z,21.00
2022-08-17T04:25:03.414Z,20.80
2022-08-17T04:27:31.781Z,20.70
2022-08-17T04:29:59.827Z,20.70
2022-08-17T04:32:59.307Z,20.70
2022-08-17T04:35:20.178Z,20.70
2022-08-17T04:37:49.820Z,20.70
2022-08-17T04:40:35.990Z,20.80
2022-08-17T04:43:07.074Z,20.80
2022-08-17T04:45:35.514Z,20.80
2022-08-17T04:48:04.480Z,20.60
2022-08-17T04:50:32.507Z,20.60
2022-08-17T04:53:02.055Z,20.50
2022-08-17T04:55:30.209Z,20.50
2022-08-17T04:57:58.535Z,20.30
2022-08-17T05:00:26.837Z,20.30
2022-08-17T05:02:56.344Z,20.30
2022-08-17T05:05:26.888Z,20.40
2022-08-17T05:07:55.408Z,20.30
2022-08-17T05:10:25.736Z,20.40
2022-08-17T05:13:00.121Z,20.60
2022-08-17T05:15:29.471Z,20.70
2022-08-17T05:18:01.644Z,20.60
2022-08-17T05:20:30.088Z,20.60
2022-08-17T05:23:00.979Z,20.50
2022-08-17T05:25:34.550Z,20.40
2022-08-17T05:28:06.641Z,20.60
2022-08-17T05:30:36.555Z,20.70
2022-08-17T05:33:07.810Z,20.80
2022-08-17T05:35:39.155Z,20.90
2022-08-17T05:38:08.015Z,20.80
2022-08-17T05:40:38.362Z,20.80
2022-08-17T05:43:09.067Z,20.60
2022-08-17T05:45:55.768Z,20.60
2022-08-17T05:48:35.636Z,20.40
2022-08-17T05:51:30.411Z,20.20
2022-08-17T05:54:09.739Z,20.20
2022-08-17T05:56:53.564Z,20.20
2022-08-17T05:59:30.472Z,20.20
2022-08-17T06:02:06.238Z,20.30
2022-08-17T06:04:49.239Z,20.30
2022-08-17T06:07:24.242Z,20.30
2022-08-17T06:10:01.826Z,20.30
2022-08-17T06:12:41.075Z,20.30
2022-08-17T06:15:24.853Z,20.40
2022-08-17T06:17:55.692Z,20.60
2022-08-17T06:20:26.530Z,20.50
2022-08-17T06:23:03.727Z,20.50
2022-08-17T06:25:37.912Z,20.60
2022-08-17T06:28:16.306Z,20.80
2022-08-17T06:31:00.056Z,20.90
2022-08-17T06:33:34.226Z,20.90
2022-08-17T06:36:18.282Z,20.90
2022-08-17T06:39:00.392Z,20.70
2022-08-17T06:41:38.940Z,20.70
2022-08-17T06:44:43.265Z,20.80
2022-08-17T06:47:12.489Z,20.90
2022-08-17T06:49:49.545Z,20.90
2022-08-17T06:52:46.381Z,20.80
2022-08-17T06:55:21.320Z,20.70
2022-08-17T06:57:52.768Z,20.80
2022-08-17T07:00:25.265Z,20.50
2022-08-17T07:02:58.747Z,20.50
2022-08-17T07:05:32.496Z,20.60
2022-08-17T07:08:05.642Z,20.60
2022-08-17T07:10:40.076Z,20.20
2022-08-17T07:13:29.947Z,20.10
2022-08-17T07:16:14.733Z,20.00
2022-08-17T07:18:43.815Z,20.00
2022-08-17T07:21:26.540Z,19.90
2022-08-17T07:24:08.151Z,19.70
2022-08-17T07:26:38.500Z,19.60
2022-08-17T07:29:07.027Z,19.40
2022-08-17T07:31:37.296Z,19.30
2022-08-17T07:34:08.669Z,19.30
2022-08-17T07:36:37.007Z,19.40
2022-08-17T07:39:05.888Z,19.70
2022-08-17T07:41:57.349Z,20.00
2022-08-17T07:44:28.259Z,20.20
2022-08-17T07:47:16.114Z,20.10
2022-08-17T07:49:46.920Z,20.30
2022-08-17T07:52:50.524Z,20.30
2022-08-17T07:55:29.408Z,20.20
2022-08-17T07:57:59.141Z,20.30
2022-08-17T08:00:31.575Z,20.20
2022-08-17T08:03:16.692Z,20.20
2022-08-17T08:05:57.748Z,20.30
2022-08-17T08:08:31.017Z,20.40
2022-08-17T08:11:07.260Z,20.50
2022-08-17T08:13:40.485Z,20.60
2022-08-17T08:16:26.400Z,20.40
2022-08-17T08:18:58.403Z,20.20
2022-08-17T08:21:43.751Z,20.30
2022-08-17T08:24:37.835Z,20.40
2022-08-17T08:27:15.955Z,20.80
2022-08-17T08:29:54.257Z,20.90
2022-08-17T08:32:48.570Z,20.80
2022-08-17T08:35:30.858Z,20.70
2022-08-17T08:38:08.289Z,20.60
2022-08-17T08:40:50.910Z,20.90
2022-08-17T08:43:28.361Z,21.20
2022-08-17T08:46:05.756Z,21.30
2022-08-17T08:48:58.425Z,21.20
2022-08-17T08:51:38.280Z,21.30
2022-08-17T08:54:16.570Z,21.50
2022-08-17T08:57:22.292Z,21.60
2022-08-17T08:59:58.234Z,21.70
2022-08-17T09:03:03.693Z,21.50
2022-08-17T09:05:45.599Z,21.60
2022-08-17T09:08:27.208Z,21.80
2022-08-17T09:11:03.036Z,21.80
2022-08-17T09:13:44.840Z,21.70
2022-08-17T09:16:19.579Z,21.20
2022-08-17T09:18:59.955Z,21.20
2022-08-17T09:21:47.757Z,21.40
2022-08-17T09:24:26.109Z,21.30
2022-08-17T09:27:00.021Z,21.70
2022-08-17T09:29:35.181Z,22.00
2022-08-17T09:32:18.743Z,22.30
2022-08-17T09:34:52.631Z,23.00
2022-08-17T09:37:25.496Z,22.50
2022-08-17T09:40:07.444Z,22.80
2022-08-17T09:42:45.465Z,23.30
2022-08-17T09:45:29.108Z,24.30
2022-08-17T09:48:03.088Z,23.40
2022-08-17T09:51:04.244Z,23.90
2022-08-17T09:53:25.819Z,23.60
2022-08-17T09:56:07.350Z,24.00
2022-08-17T09:58:47.635Z,23.60
2022-08-17T10:01:25.962Z,23.40
2022-08-17T10:04:11.804Z,24.00
2022-08-17T10:06:51.353Z,23.90
2022-08-17T10:09:29.353Z,23.40
2022-08-17T10:12:20.472Z,23.40
2022-08-17T10:15:11.737Z,23.70
2022-08-17T10:17:49.695Z,23.90
2022-08-17T10:20:22.949Z,24.40
2022-08-17T10:23:12.968Z,23.80
2022-08-17T10:26:03.928Z,23.00
2022-08-17T10:28:41.579Z,23.30
2022-08-17T10:34:36.128Z,23.30
2022-08-17T10:37:34.615Z,23.00
2022-08-17T10:40:19.391Z,23.20
2022-08-17T10:42:52.233Z,22.90
2022-08-17T10:45:30.459Z,22.80
2022-08-17T10:48:06.675Z,22.70
2022-08-17T10:50:49.524Z,22.50
2022-08-17T10:53:51.423Z,22.30
2022-08-17T10:56:23.239Z,22.40
2022-08-17T10:58:54.523Z,22.40
2022-08-17T11:01:58.311Z,22.90
2022-08-17T11:04:42.129Z,22.90
2022-08-17T11:07:27.930Z,22.80
2022-08-17T11:10:19.041Z,22.80
2022-08-17T11:12:55.418Z,23.10
2022-08-17T11:15:38.012Z,22.80
2022-08-17T11:18:31.855Z,23.10
2022-08-17T11:21:14.867Z,23.10
2022-08-17T11:24:14.633Z,23.20
2022-08-17T11:26:47.565Z,23.10
2022-08-17T11:29:25.610Z,23.50
2022-08-17T11:32:04.898Z,23.80
2022-08-17T11:34:35.439Z,23.80
2022-08-17T11:37:28.946Z,23.30
2022-08-17T11:40:29.120Z,23.80
2022-08-17T11:43:21.283Z,23.70
2022-08-17T11:46:03.984Z,23.90
2022-08-17T11:48:55.910Z,24.40
2022-08-17T11:51:46.400Z,24.20
2022-08-17T11:54:39.076Z,23.50
2022-08-17T11:57:40.267Z,23.60
2022-08-17T12:00:23.965Z,23.80
2022-08-17T12:03:26.557Z,23.50
2022-08-17T12:06:04.602Z,23.50
2022-08-17T12:08:35.306Z,23.40
2022-08-17T12:11:11.149Z,24.60
2022-08-17T12:13:45.639Z,24.00
2022-08-17T12:16:17.420Z,23.80
2022-08-17T12:18:51.479Z,23.60
2022-08-17T12:21:45.037Z,23.40
2022-08-17T12:24:29.207Z,23.70
2022-08-17T12:26:59.415Z,24.30
2022-08-17T12:29:39.057Z,25.20
2022-08-17T12:32:14.015Z,23.90
2022-08-17T12:34:44.907Z,22.80
2022-08-17T12:37:16.958Z,22.70
2022-08-17T12:39:53.309Z,22.40
2022-08-17T12:42:29.261Z,22.50
2022-08-17T12:44:58.226Z,22.90
2022-08-17T12:47:29.481Z,22.70
2022-08-17T12:50:29.120Z,22.80
2022-08-17T12:53:01.736Z,22.80
2022-08-17T12:55:38.809Z,23.10
2022-08-17T12:58:14.466Z,23.40
2022-08-17T13:00:49.861Z,23.60
2022-08-17T13:03:20.197Z,23.50
2022-08-17T13:05:58.615Z,23.50
2022-08-17T13:08:31.370Z,23.50
2022-08-17T13:11:04.814Z,23.00
2022-08-17T13:13:34.728Z,22.80
2022-08-17T13:16:05.806Z,22.50
2022-08-17T13:18:39.810Z,22.60
2022-08-17T13:21:12.719Z,23.00
2022-08-17T13:23:46.563Z,23.40
2022-08-17T13:26:29.386Z,23.50
2022-08-17T13:28:57.867Z,23.60
2022-08-17T13:31:37.484Z,23.80
2022-08-17T13:34:34.474Z,23.70
2022-08-17T13:37:36.235Z,24.30
2022-08-17T13:40:29.112Z,24.20
2022-08-17T13:42:58.702Z,24.90
2022-08-17T13:45:50.456Z,24.90
2022-08-17T13:48:26.800Z,25.00
2022-08-17T13:51:12.647Z,25.30
2022-08-17T13:54:11.489Z,25.10
2022-08-17T13:57:05.034Z,24.30
2022-08-17T13:59:54.585Z,24.00
2022-08-17T14:02:27.626Z,24.80
2022-08-17T14:04:57.852Z,24.80
2022-08-17T14:07:34.055Z,25.00
2022-08-17T14:10:05.559Z,24.50
2022-08-17T14:12:38.190Z,24.90
2022-08-17T14:15:08.886Z,24.90
2022-08-17T14:17:39.123Z,24.80
2022-08-17T14:20:10.463Z,25.30
2022-08-17T14:22:44.177Z,25.70
2022-08-17T14:25:14.965Z,25.40
2022-08-17T14:27:53.229Z,25.40
2022-08-17T14:30:25.235Z,25.80
2022-08-17T14:32:54.594Z,26.30
2022-08-17T14:35:24.457Z,26.90
2022-08-17T14:37:53.421Z,24.90
2022-08-17T14:40:24.560Z,25.50
2022-08-17T14:42:55.190Z,24.50
2022-08-17T14:45:31.596Z,24.60
2022-08-17T14:48:00.969Z,24.90
2022-08-17T14:50:29.009Z,24.60
2022-08-17T14:52:57.954Z,24.40
2022-08-17T14:55:26.421Z,25.10
2022-08-17T14:57:54.523Z,25.70
2022-08-17T15:00:24.325Z,24.50
2022-08-17T15:02:55.796Z,25.20
2022-08-17T15:05:26.218Z,25.10
2022-08-17T15:07:55.766Z,24.30
2022-08-17T15:10:25.834Z,24.30
2022-08-17T15:12:54.463Z,24.50
2022-08-17T15:15:23.975Z,25.00
2022-08-17T15:17:52.461Z,25.00
2022-08-17T15:20:23.821Z,25.10
2022-08-17T15:22:55.026Z,24.60
2022-08-17T15:25:23.375Z,24.10
2022-08-17T15:27:52.353Z,24.20
2022-08-17T15:30:21.279Z,24.50
2022-08-17T15:32:54.540Z,24.70
2022-08-17T15:35:27.525Z,24.50
2022-08-17T15:37:57.748Z,24.30
2022-08-17T15:40:26.194Z,23.60
2022-08-17T15:42:54.776Z,23.10
2022-08-17T15:45:26.385Z,23.10
2022-08-17T15:47:56.050Z,23.80
2022-08-17T15:50:24.185Z,23.70
2022-08-17T15:52:58.093Z,24.30
2022-08-17T15:55:27.512Z,24.30
2022-08-17T15:57:55.849Z,23.90
2022-08-17T16:00:26.001Z,23.80
2022-08-17T16:03:44.679Z,24.20
2022-08-17T16:05:44.400Z,24.10
2022-08-17T16:08:20.159Z,23.90
2022-08-17T16:10:49.266Z,23.80
2022-08-17T16:13:18.268Z,23.90
2022-08-17T16:15:56.710Z,24.30
2022-08-17T16:18:31.065Z,23.80
2022-08-17T16:21:21.568Z,24.30
2022-08-17T16:23:51.438Z,24.30
2022-08-17T16:26:20.228Z,24.30
2022-08-17T16:28:48.608Z,24.40
2022-08-17T16:31:17.187Z,23.80
2022-08-17T16:34:15.503Z,24.00
2022-08-17T16:36:37.642Z,23.70
2022-08-17T16:39:05.925Z,23.80
2022-08-17T16:41:46.525Z,23.50
2022-08-17T16:44:15.878Z,23.90
2022-08-17T16:46:45.894Z,24.40
2022-08-17T16:49:31.572Z,23.70
2022-08-17T16:52:06.936Z,23.70
2022-08-17T16:54:35.976Z,23.90
2022-08-17T16:57:05.628Z,23.90
2022-08-17T16:59:39.603Z,24.00
2022-08-17T17:02:14.088Z,24.00
2022-08-17T17:04:54.560Z,24.10
2022-08-17T17:07:51.890Z,23.70
2022-08-17T17:10:24.418Z,24.40
2022-08-17T17:13:01.334Z,24.40
2022-08-17T17:15:54.310Z,24.70
2022-08-17T17:18:31.086Z,24.70
2022-08-17T17:21:01.491Z,24.60
2022-08-17T17:23:37.859Z,24.10
2022-08-17T17:26:21.528Z,23.30
2022-08-17T17:29:04.921Z,23.30
2022-08-17T17:31:39.209Z,23.20
2022-08-17T17:34:11.213Z,23.20
2022-08-17T17:36:45.354Z,23.00
2022-08-17T17:39:18.859Z,22.90
2022-08-17T17:41:50.069Z,23.10
2022-08-17T17:44:22.706Z,23.10
2022-08-17T17:46:55.593Z,23.10
2022-08-17T17:49:25.115Z,23.30
2022-08-17T17:52:07.948Z,23.70
2022-08-17T17:54:55.114Z,23.30
2022-08-17T17:57:30.345Z,23.70
2022-08-17T18:00:06.994Z,23.60
2022-08-17T18:02:53.027Z,23.10
2022-08-17T18:05:38.829Z,23.30
2022-08-17T18:08:21.073Z,23.20
2022-08-17T18:11:07.334Z,23.00
2022-08-17T18:13:50.119Z,22.70
2022-08-17T18:16:19.948Z,22.30
2022-08-17T18:18:50.044Z,21.80
2022-08-17T18:21:21.668Z,22.00
2022-08-17T18:23:56.104Z,22.00
2022-08-17T18:26:55.340Z,22.10
2022-08-17T18:29:31.356Z,21.80
2022-08-17T18:32:28.829Z,21.50
2022-08-17T18:34:59.181Z,21.50
2022-08-17T18:37:38.603Z,21.40
2022-08-17T18:40:36.673Z,21.20
2022-08-17T18:43:14.472Z,20.80
2022-08-17T18:45:47.900Z,20.80
2022-08-17T18:48:29.159Z,20.70
2022-08-17T18:51:01.214Z,20.70
2022-08-17T18:53:38.492Z,20.50
2022-08-17T18:56:30.773Z,20.30
2022-08-17T18:59:03.984Z,20.20
2022-08-17T19:01:52.795Z,20.10
2022-08-17T19:04:34.472Z,20.00
2022-08-17T19:07:12.663Z,20.00
2022-08-17T19:09:45.141Z,20.00
2022-08-17T19:12:27.418Z,20.00
2022-08-17T19:14:58.050Z,19.80
2022-08-17T19:17:36.163Z,19.50
2022-08-17T19:20:19.741Z,19.40
2022-08-17T19:23:01.519Z,19.40
2022-08-17T19:25:33.506Z,19.50
2022-08-17T19:28:12.707Z,19.50
2022-08-17T19:30:51.164Z,19.50
2022-08-17T19:33:19.466Z,19.30
2022-08-17T19:35:55.724Z,19.20
2022-08-17T19:38:37.614Z,19.10
2022-08-17T19:41:10.617Z,19.00
2022-08-17T19:43:57.132Z,18.90
2022-08-17T19:46:35.557Z,19.10
2022-08-17T19:49:10.593Z,19.10
2022-08-17T19:51:45.914Z,19.00
2022-08-17T19:54:21.129Z,18.90
2022-08-17T19:56:59.008Z,19.00
2022-08-17T19:59:48.916Z,18.80
2022-08-17T20:02:29.233Z,18.90
2022-08-17T20:05:02.740Z,18.90
2022-08-17T20:07:40.035Z,18.90
2022-08-17T20:10:12.250Z,18.90
2022-08-17T20:12:52.828Z,18.90
2022-08-17T20:15:29.544Z,18.90
2022-08-17T20:18:02.121Z,18.90
2022-08-17T20:20:37.096Z,18.90
2022-08-17T20:23:12.904Z,18.90
2022-08-17T20:25:47.318Z,18.80
2022-08-17T20:28:24.345Z,18.70
2022-08-17T20:30:54.258Z,18.70
2022-08-17T20:33:28.137Z,18.70
2022-08-17T20:36:16.794Z,18.70
2022-08-17T20:38:48.349Z,18.60
2022-08-17T20:41:18.441Z,18.40
2022-08-17T20:43:52.170Z,18.50
2022-08-17T20:46:48.505Z,18.30
2022-08-17T20:49:28.209Z,18.00
2022-08-17T20:52:02.655Z,17.80
2022-08-17T20:54:46.884Z,17.90
2022-08-17T20:57:48.945Z,17.80
2022-08-17T21:00:42.347Z,17.80
2022-08-17T21:03:51.177Z,18.00
2022-08-17T21:06:23.711Z,18.20
2022-08-17T21:08:58.653Z,18.00
2022-08-17T21:12:04.363Z,17.80
2022-08-17T21:14:58.628Z,17.80
2022-08-17T21:17:39.410Z,17.70
2022-08-17T21:20:25.355Z,17.80
2022-08-17T21:23:20.420Z,17.80
2022-08-17T21:26:10.886Z,17.40
2022-08-17T21:29:00.359Z,17.20
2022-08-17T21:31:35.849Z,17.30
2022-08-17T21:34:30.856Z,17.10
2022-08-17T21:37:30.392Z,17.10
2022-08-17T21:40:18.279Z,17.30
2022-08-17T21:42:48.777Z,17.30
2022-08-17T21:45:23.216Z,17.40
2022-08-17T21:48:06.782Z,17.50
2022-08-17T21:50:35.958Z,17.10
2022-08-17T21:53:06.372Z,16.80
2022-08-17T21:55:37.047Z,16.80
2022-08-17T21:58:14.617Z,17.20
2022-08-17T22:00:44.985Z,17.30
2022-08-17T22:03:25.839Z,17.50
2022-08-17T22:05:54.062Z,17.60
2022-08-17T22:08:26.147Z,18.10
2022-08-17T22:11:02.611Z,17.30
2022-08-17T22:13:30.741Z,17.20
2022-08-17T22:16:28.154Z,17.20
2022-08-17T22:18:58.944Z,17.20
2022-08-17T22:21:27.625Z,17.00
2022-08-17T22:24:06.235Z,16.60
2022-08-17T22:27:01.323Z,17.10
2022-08-17T22:29:45.574Z,17.00
2022-08-17T22:32:35.556Z,16.90
2022-08-17T22:35:33.673Z,16.90
2022-08-17T22:38:28.992Z,17.10
2022-08-17T22:41:35.170Z,17.10
2022-08-17T22:44:14.055Z,17.60
2022-08-17T22:46:49.604Z,17.80
2022-08-17T22:49:26.739Z,17.60
2022-08-17T22:52:04.097Z,17.60
2022-08-17T22:54:50.168Z,17.00
2022-08-17T22:57:38.577Z,16.30
2022-08-17T23:00:28.664Z,16.60
2022-08-17T23:03:10.768Z,16.70
2022-08-17T23:05:40.889Z,16.40
2022-08-17T23:08:11.180Z,16.40
2022-08-17T23:10:39.485Z,16.40
2022-08-17T23:13:11.837Z,16.50
2022-08-17T23:15:41.582Z,16.70
2022-08-17T23:18:09.910Z,16.80
2022-08-17T23:20:42.744Z,16.90
2022-08-17T23:23:12.010Z,16.70
2022-08-17T23:25:40.104Z,16.90
2022-08-17T23:28:11.319Z,16.80
2022-08-17T23:30:43.246Z,16.80
2022-08-17T23:33:18.509Z,16.80
2022-08-17T23:35:46.596Z,17.00
2022-08-17T23:38:14.975Z,17.00
2022-08-17T23:40:43.113Z,16.90
2022-08-17T23:43:24.122Z,16.40
2022-08-17T23:45:55.380Z,16.00
2022-08-17T23:48:35.378Z,15.90
2022-08-17T23:51:09.133Z,16.10
2022-08-17T23:53:39.006Z,16.30
2022-08-17T23:56:11.149Z,16.20
2022-08-17T23:58:43.082Z,16.40
